createdAt,value
2018-12-07T00:02:23.046Z,85.15
2018-12-07T00:05:10.665Z,85.11
2018-12-07T00:07:58.710Z,85.01
2018-12-07T00:10:48.885Z,84.93
2018-12-07T00:16:43.747Z,84.87
2018-12-07T00:19:31.243Z,83.26
2018-12-07T00:22:19.428Z,83.73
2018-12-07T00:25:08.272Z,84.01
2018-12-07T00:27:56.020Z,84.18
2018-12-07T00:30:50.865Z,84.24
2018-12-07T01:08:00.676Z,83.69
2018-12-07T01:10:47.411Z,83.96
2018-12-07T01:19:49.093Z,84.49
2018-12-07T01:22:38.348Z,84.62
2018-12-07T01:25:26.660Z,83.04
2018-12-07T01:28:13.926Z,83.78
2018-12-07T01:31:00.929Z,84.23
2018-12-07T01:33:50.476Z,84.85
2018-12-07T01:36:37.783Z,85.31
2018-12-07T01:39:25.267Z,85.63
2018-12-07T01:42:12.440Z,86.06
2018-12-07T01:45:00.500Z,84.68
2018-12-07T01:47:47.355Z,85.49
2018-12-07T01:50:34.530Z,84.12
2018-12-07T01:53:21.966Z,85.13
2018-12-07T01:56:08.903Z,85.51
2018-12-07T01:58:56.220Z,85.91
2018-12-07T02:01:43.246Z,86.13
2018-12-07T02:04:30.360Z,86.11
2018-12-07T02:10:35.338Z,86.27
2018-12-07T02:13:22.250Z,86.33
2018-12-07T02:16:08.913Z,86.31
2018-12-07T02:18:55.933Z,86.18
2018-12-07T02:21:43.453Z,84.52
2018-12-07T02:24:30.678Z,84.96
2018-12-07T02:27:17.966Z,85.17
2018-12-07T02:30:05.261Z,85.32
2018-12-07T02:32:52.714Z,85.49
2018-12-07T02:35:39.538Z,85.41
2018-12-07T02:38:26.409Z,85.42
2018-12-07T02:41:13.606Z,85.39
2018-12-07T02:44:00.467Z,85.44
2018-12-07T02:46:47.413Z,83.81
2018-12-07T02:49:34.179Z,84.39
2018-12-07T02:52:21.205Z,84.60
2018-12-07T02:55:08.530Z,84.70
2018-12-07T02:57:56.010Z,83.09
2018-12-07T03:00:43.226Z,81.95
2018-12-07T03:03:30.447Z,82.93
2018-12-07T03:06:17.627Z,83.45
2018-12-07T03:09:05.483Z,83.87
2018-12-07T03:11:54.211Z,82.22
2018-12-07T03:14:41.140Z,81.16
2018-12-07T03:17:27.983Z,82.33
2018-12-07T03:20:15.167Z,80.99
2018-12-07T03:23:02.637Z,82.14
2018-12-07T03:25:50.134Z,82.74
2018-12-07T03:28:37.404Z,83.18
2018-12-07T03:31:24.981Z,83.54
2018-12-07T03:34:12.417Z,83.79
2018-12-07T03:36:59.647Z,83.99
2018-12-07T03:39:47.445Z,84.13
2018-12-07T03:42:36.386Z,84.31
2018-12-07T03:45:23.802Z,84.42
2018-12-07T03:48:11.703Z,84.49
2018-12-07T03:50:58.820Z,84.62
2018-12-07T03:53:45.940Z,84.64
2018-12-07T03:56:33.224Z,82.99
2018-12-07T03:59:20.400Z,83.54
2018-12-07T04:02:07.764Z,83.85
2018-12-07T04:04:57.728Z,84.12
2018-12-07T04:07:44.728Z,84.38
2018-12-07T04:10:32.507Z,84.63
2018-12-07T04:13:20.081Z,84.87
2018-12-07T04:16:06.867Z,84.85
2018-12-07T04:18:54.067Z,84.94
2018-12-07T04:21:41.181Z,84.92
2018-12-07T04:24:28.330Z,84.95
2018-12-07T04:27:15.507Z,84.99
2018-12-07T04:30:17.708Z,84.99
2018-12-07T04:33:04.871Z,84.92
2018-12-07T04:35:52.151Z,84.84
2018-12-07T04:38:39.365Z,84.73
2018-12-07T04:41:26.442Z,84.67
2018-12-07T04:44:13.243Z,82.84
2018-12-07T04:47:00.504Z,83.34
2018-12-07T04:49:47.718Z,83.53
2018-12-07T04:52:37.355Z,83.67
2018-12-07T04:55:38.027Z,83.71
2018-12-07T04:58:25.054Z,83.75
2018-12-07T05:01:12.358Z,81.95
2018-12-07T05:07:05.480Z,81.74
2018-12-07T05:09:52.498Z,82.23
2018-12-07T05:12:39.897Z,80.50
2018-12-07T05:15:27.230Z,81.43
2018-12-07T05:18:14.389Z,79.87
2018-12-07T05:21:02.176Z,80.96
2018-12-07T05:23:50.962Z,79.34
2018-12-07T05:26:38.570Z,80.55
2018-12-07T05:29:26.639Z,81.13
2018-12-07T05:32:13.913Z,81.50
2018-12-07T05:35:01.403Z,81.73
2018-12-07T05:37:49.479Z,81.89
2018-12-07T05:40:38.045Z,82.06
2018-12-07T05:43:25.598Z,82.18
2018-12-07T05:46:13.332Z,82.37
2018-12-07T05:49:00.880Z,82.52
2018-12-07T05:51:48.512Z,82.60
2018-12-07T05:54:43.255Z,82.69
2018-12-07T05:57:30.743Z,82.79
2018-12-07T06:00:18.386Z,82.82
2018-12-07T06:03:06.025Z,82.84
2018-12-07T06:05:53.353Z,81.00
2018-12-07T06:08:40.752Z,81.79
2018-12-07T06:11:29.463Z,82.19
2018-12-07T06:14:17.267Z,82.40
2018-12-07T06:17:04.597Z,82.54
2018-12-07T06:19:52.172Z,82.70
2018-12-07T06:22:41.930Z,80.93
2018-12-07T06:25:29.318Z,81.78
2018-12-07T06:28:16.749Z,82.43
2018-12-07T06:31:04.264Z,82.97
2018-12-07T06:33:51.638Z,83.51
2018-12-07T06:36:39.235Z,83.93
2018-12-07T06:39:28.318Z,84.09
2018-12-07T06:42:19.810Z,84.50
2018-12-07T06:45:07.363Z,84.63
2018-12-07T06:47:55.444Z,84.53
2018-12-07T06:50:43.409Z,84.58
2018-12-07T06:53:30.748Z,84.74
2018-12-07T06:56:18.435Z,84.77
2018-12-07T06:59:05.519Z,84.83
2018-12-07T07:01:52.784Z,84.92
2018-12-07T07:04:54.641Z,85.04
2018-12-07T07:07:42.803Z,85.12
2018-12-07T07:10:31.477Z,85.26
2018-12-07T07:13:21.619Z,85.38
2018-12-07T07:16:09.073Z,83.75
2018-12-07T07:18:56.682Z,84.49
2018-12-07T07:21:44.413Z,84.86
2018-12-07T07:24:32.471Z,85.50
2018-12-07T07:27:20.719Z,85.74
2018-12-07T07:30:08.905Z,86.24
2018-12-07T07:32:58.869Z,86.58
2018-12-07T07:38:53.453Z,87.11
2018-12-07T07:41:41.521Z,87.30
2018-12-07T07:44:28.968Z,87.32
2018-12-07T07:47:16.745Z,87.48
2018-12-07T07:50:05.966Z,85.99
2018-12-07T07:52:52.034Z,86.76
2018-12-07T07:58:46.292Z,87.61
2018-12-07T08:01:33.750Z,87.88
2018-12-07T08:04:21.744Z,88.08
2018-12-07T08:07:09.946Z,88.38
2018-12-07T08:09:58.491Z,88.55
2018-12-07T08:12:47.190Z,88.68
2018-12-07T08:15:35.485Z,88.73
2018-12-07T08:18:22.909Z,88.86
2018-12-07T08:21:37.542Z,88.87
2018-12-07T08:28:39.745Z,89.11
2018-12-07T08:31:27.316Z,89.21
2018-12-07T08:38:35.944Z,88.58
2018-12-07T08:41:25.753Z,88.93
2018-12-07T08:44:13.453Z,89.09
2018-12-07T08:47:01.082Z,89.19
2018-12-07T08:49:56.326Z,89.28
2018-12-07T08:52:43.442Z,89.39
2018-12-07T08:55:30.560Z,89.42
2018-12-07T08:58:17.906Z,89.55
2018-12-07T09:01:05.277Z,89.60
2018-12-07T09:03:53.247Z,89.59
2018-12-07T09:06:40.124Z,89.66
2018-12-07T09:09:27.839Z,87.99
2018-12-07T09:12:17.774Z,88.47
2018-12-07T09:15:05.208Z,88.69
2018-12-07T09:17:52.086Z,88.89
2018-12-07T09:20:38.840Z,87.24
2018-12-07T09:23:26.258Z,86.00
2018-12-07T09:26:13.479Z,84.85
2018-12-07T09:29:03.677Z,85.94
2018-12-07T09:31:50.556Z,86.55
2018-12-07T09:34:37.396Z,86.87
2018-12-07T09:37:24.669Z,87.19
2018-12-07T09:40:12.089Z,87.43
2018-12-07T09:42:59.223Z,87.63
2018-12-07T09:45:54.350Z,87.81
2018-12-07T09:48:41.202Z,87.98
2018-12-07T09:51:30.443Z,88.05
2018-12-07T09:54:17.747Z,86.18
2018-12-07T09:57:06.421Z,84.86
2018-12-07T09:59:53.376Z,85.85
2018-12-07T10:02:40.317Z,86.41
2018-12-07T10:05:27.277Z,86.79
2018-12-07T10:08:14.758Z,87.07
2018-12-07T10:11:01.955Z,87.31
2018-12-07T10:13:49.673Z,87.52
2018-12-07T10:16:37.163Z,87.66
2018-12-07T10:19:24.596Z,87.82
2018-12-07T10:22:12.809Z,87.91
2018-12-07T10:24:59.905Z,88.00
2018-12-07T10:27:46.813Z,88.07
2018-12-07T10:30:33.793Z,88.08
2018-12-07T10:33:21.155Z,86.02
2018-12-07T10:36:08.778Z,86.62
2018-12-07T10:39:03.865Z,86.87
2018-12-07T10:41:50.681Z,87.11
2018-12-07T10:44:40.521Z,87.29
2018-12-07T10:47:28.065Z,85.35
2018-12-07T10:50:15.613Z,86.05
2018-12-07T10:53:03.060Z,86.45
2018-12-07T10:55:49.819Z,86.72
2018-12-07T10:58:36.872Z,86.95
2018-12-07T11:01:42.773Z,85.11
2018-12-07T11:04:47.541Z,85.96
2018-12-07T11:07:52.996Z,86.45
2018-12-07T11:10:55.066Z,86.76
2018-12-07T11:14:01.850Z,87.07
2018-12-07T11:17:07.019Z,87.33
2018-12-07T11:20:11.925Z,87.49
2018-12-07T11:23:17.308Z,87.60
2018-12-07T11:26:22.740Z,87.74
2018-12-07T11:29:14.066Z,87.78
2018-12-07T11:32:17.102Z,87.87
2018-12-07T11:35:04.092Z,87.98
2018-12-07T11:37:52.074Z,88.04
2018-12-07T11:40:43.588Z,88.10
2018-12-07T11:43:33.751Z,88.13
2018-12-07T11:46:22.170Z,88.09
2018-12-07T11:49:09.411Z,88.03
2018-12-07T11:51:56.991Z,88.01
2018-12-07T11:54:44.644Z,88.07
2018-12-07T11:57:32.641Z,88.09
2018-12-07T12:00:19.493Z,88.09
2018-12-07T12:03:06.829Z,88.15
2018-12-07T12:05:54.254Z,88.08
2018-12-07T12:08:41.128Z,87.99
2018-12-07T12:11:29.244Z,85.90
2018-12-07T12:17:22.713Z,86.65
2018-12-07T12:20:10.911Z,86.67
2018-12-07T12:22:58.346Z,86.67
2018-12-07T12:25:46.142Z,86.84
2018-12-07T12:28:33.434Z,86.81
2018-12-07T12:31:22.911Z,86.79
2018-12-07T12:34:13.681Z,86.80
2018-12-07T12:37:02.450Z,86.57
2018-12-07T12:39:49.506Z,86.39
2018-12-07T12:42:36.907Z,84.18
2018-12-07T12:45:23.887Z,84.65
2018-12-07T12:48:12.239Z,84.95
2018-12-07T12:51:02.987Z,84.99
2018-12-07T12:53:53.241Z,85.06
2018-12-07T12:56:41.705Z,85.13
2018-12-07T12:59:30.249Z,85.28
2018-12-07T13:02:18.262Z,85.29
2018-12-07T13:05:05.982Z,85.30
2018-12-07T13:07:53.829Z,85.32
2018-12-07T13:10:42.370Z,85.30
2018-12-07T13:13:31.875Z,85.47
2018-12-07T13:16:21.902Z,85.76
2018-12-07T13:19:09.079Z,85.99
2018-12-07T13:21:56.034Z,86.25
2018-12-07T13:24:43.739Z,86.44
2018-12-07T13:27:30.865Z,86.65
2018-12-07T13:30:18.368Z,86.73
2018-12-07T13:33:13.254Z,86.86
2018-12-07T13:36:00.407Z,86.89
2018-12-07T13:38:47.994Z,86.88
2018-12-07T13:41:35.331Z,86.72
2018-12-07T13:44:22.644Z,86.73
2018-12-07T13:47:09.739Z,86.75
2018-12-07T13:50:16.142Z,86.72
2018-12-07T13:53:03.545Z,84.81
2018-12-07T13:56:02.590Z,85.42
2018-12-07T13:58:50.382Z,85.73
2018-12-07T14:01:39.417Z,85.95
2018-12-07T14:10:57.396Z,85.07
2018-12-07T14:13:47.814Z,85.50
2018-12-07T14:16:35.180Z,85.75
2018-12-07T14:19:24.576Z,85.97
2018-12-07T14:22:12.095Z,86.15
2018-12-07T14:25:04.526Z,86.20
2018-12-07T14:27:53.037Z,86.31
2018-12-07T14:30:50.315Z,86.37
2018-12-07T14:33:40.487Z,86.48
2018-12-07T14:36:36.009Z,84.54
2018-12-07T14:39:29.337Z,85.08
2018-12-07T14:42:27.113Z,85.29
2018-12-07T14:45:23.396Z,83.35
2018-12-07T14:48:13.418Z,84.24
2018-12-07T14:51:03.069Z,84.71
2018-12-07T14:53:56.742Z,85.10
2018-12-07T14:56:47.722Z,85.33
2018-12-07T14:59:47.853Z,85.49
2018-12-07T15:05:47.915Z,85.62
2018-12-07T15:08:49.453Z,85.69
2018-12-07T15:11:50.910Z,85.74
2018-12-07T15:14:40.418Z,85.78
2018-12-07T15:17:28.247Z,85.83
2018-12-07T15:20:20.570Z,85.79
2018-12-07T15:23:11.465Z,85.77
2018-12-07T15:25:58.908Z,85.78
2018-12-07T15:28:47.046Z,85.75
2018-12-07T15:31:49.410Z,83.93
2018-12-07T15:34:37.211Z,84.42
2018-12-07T15:37:24.236Z,84.64
2018-12-07T15:40:13.457Z,84.78
2018-12-07T15:43:04.063Z,84.92
2018-12-07T15:45:55.161Z,83.06
2018-12-07T15:48:44.127Z,83.68
2018-12-07T15:51:33.960Z,83.96
2018-12-07T15:54:26.033Z,82.13
2018-12-07T15:57:17.700Z,82.89
2018-12-07T16:00:07.082Z,83.47
2018-12-07T16:02:54.746Z,83.82
2018-12-07T16:05:42.120Z,84.08
2018-12-07T16:08:32.139Z,84.27
2018-12-07T16:11:19.298Z,84.37
2018-12-07T16:14:06.597Z,84.51
2018-12-07T16:16:53.909Z,84.57
2018-12-07T16:22:48.022Z,84.80
2018-12-07T16:25:35.274Z,84.89
2018-12-07T16:28:22.331Z,83.31
2018-12-07T16:31:09.635Z,84.23
2018-12-07T16:33:57.007Z,84.93
2018-12-07T16:36:44.777Z,85.46
2018-12-07T16:39:33.228Z,85.91
2018-12-07T16:42:19.959Z,86.27
2018-12-07T16:45:08.410Z,86.64
2018-12-07T16:47:56.074Z,87.02
2018-12-07T16:50:43.159Z,87.32
2018-12-07T16:53:31.167Z,87.52
2018-12-07T16:56:19.028Z,87.72
2018-12-07T16:59:05.673Z,87.85
2018-12-07T17:01:53.139Z,87.91
2018-12-07T17:04:41.652Z,88.03
2018-12-07T17:07:31.822Z,88.09
2018-12-07T17:10:23.767Z,88.11
2018-12-07T17:13:11.504Z,88.14
2018-12-07T17:15:59.836Z,88.13
2018-12-07T17:18:46.725Z,86.41
2018-12-07T17:21:34.198Z,86.98
2018-12-07T17:24:21.490Z,87.23
2018-12-07T17:27:08.561Z,87.43
2018-12-07T17:29:56.270Z,87.53
2018-12-07T17:32:43.920Z,87.61
2018-12-07T17:35:31.383Z,87.58
2018-12-07T17:38:19.025Z,87.55
2018-12-07T17:41:06.491Z,85.77
2018-12-07T17:43:54.177Z,86.19
2018-12-07T17:46:41.892Z,86.41
2018-12-07T17:49:29.761Z,86.58
2018-12-07T17:52:16.807Z,86.75
2018-12-07T17:55:04.276Z,86.80
2018-12-07T17:57:51.826Z,86.87
2018-12-07T18:00:38.779Z,86.89
2018-12-07T18:03:25.641Z,86.88
2018-12-07T18:06:13.200Z,86.90
2018-12-07T18:09:00.160Z,86.86
2018-12-07T18:11:48.267Z,86.81
2018-12-07T18:14:34.881Z,86.79
2018-12-07T18:17:22.646Z,86.74
2018-12-07T18:20:12.484Z,86.71
2018-12-07T18:22:59.687Z,84.94
2018-12-07T18:25:48.205Z,85.42
2018-12-07T18:28:35.977Z,85.61
2018-12-07T18:31:23.370Z,85.73
2018-12-07T18:34:10.663Z,85.75
2018-12-07T18:37:02.720Z,85.72
2018-12-07T18:39:50.054Z,85.67
2018-12-07T18:42:43.744Z,85.48
2018-12-07T18:48:39.700Z,84.96
2018-12-07T18:51:26.807Z,84.70
2018-12-07T18:54:14.368Z,84.34
2018-12-07T18:57:02.149Z,84.25
2018-12-07T18:59:50.107Z,84.03
2018-12-07T19:02:37.535Z,83.78
2018-12-07T19:05:24.848Z,83.55
2018-12-07T19:08:12.542Z,81.60
2018-12-07T19:11:00.158Z,81.81
2018-12-07T19:13:48.420Z,81.94
2018-12-07T19:16:41.358Z,79.80
2018-12-07T19:19:28.716Z,80.38
2018-12-07T19:22:16.107Z,80.82
2018-12-07T19:25:05.535Z,78.70
2018-12-07T19:27:53.243Z,79.62
2018-12-07T19:30:40.201Z,79.97
2018-12-07T19:33:27.651Z,80.31
2018-12-07T19:36:16.366Z,80.15
2018-12-07T19:39:03.103Z,80.15
2018-12-07T19:42:12.799Z,80.19
2018-12-07T19:45:00.675Z,77.95
2018-12-07T19:47:56.737Z,78.78
2018-12-07T19:50:44.868Z,79.33
2018-12-07T19:53:41.844Z,79.80
2018-12-07T19:56:36.475Z,80.08
2018-12-07T19:59:29.276Z,80.27
2018-12-07T20:02:17.236Z,78.09
2018-12-07T20:14:35.376Z,79.16
2018-12-07T20:17:23.085Z,79.67
2018-12-07T20:20:15.677Z,79.54
2018-12-07T20:23:04.700Z,79.58
2018-12-07T20:25:55.736Z,77.57
2018-12-07T20:28:43.784Z,75.94
2018-12-07T20:31:32.490Z,77.44
2018-12-07T20:34:20.418Z,78.09
2018-12-07T20:37:09.131Z,78.49
2018-12-07T20:39:56.210Z,78.79
2018-12-07T20:42:43.510Z,78.92
2018-12-07T20:45:30.083Z,79.12
2018-12-07T20:48:17.178Z,79.25
2018-12-07T20:54:10.157Z,79.41
2018-12-07T20:56:57.314Z,77.47
2018-12-07T20:59:45.302Z,78.37
2018-12-07T21:02:32.816Z,78.87
2018-12-07T21:05:20.185Z,79.20
2018-12-07T21:08:08.894Z,79.21
2018-12-07T21:10:58.026Z,79.29
2018-12-07T21:13:48.334Z,79.49
2018-12-07T21:16:57.762Z,79.51
2018-12-07T21:20:04.731Z,79.34
2018-12-07T21:22:54.872Z,79.37
2018-12-07T21:25:41.597Z,79.52
2018-12-07T21:28:28.815Z,79.49
2018-12-07T21:31:15.347Z,77.42
2018-12-07T21:34:03.634Z,78.40
2018-12-07T21:36:51.493Z,78.83
2018-12-07T21:39:38.956Z,79.04
2018-12-07T21:42:25.623Z,76.71
2018-12-07T21:45:13.921Z,77.65
2018-12-07T21:48:06.285Z,78.08
2018-12-07T21:51:06.076Z,78.20
2018-12-07T21:53:53.028Z,78.31
2018-12-07T21:56:40.343Z,78.35
2018-12-07T21:59:29.053Z,78.40
2018-12-07T22:02:19.647Z,78.32
2018-12-07T22:05:06.713Z,78.39
2018-12-07T22:07:54.267Z,78.36
2018-12-07T22:10:41.505Z,78.76
2018-12-07T22:13:28.982Z,79.04
2018-12-07T22:16:16.207Z,79.24
2018-12-07T22:19:09.530Z,79.58
2018-12-07T22:22:00.232Z,79.41
2018-12-07T22:24:48.699Z,79.30
2018-12-07T22:27:51.847Z,79.42
2018-12-07T22:30:40.807Z,79.47
2018-12-07T22:33:28.164Z,79.67
2018-12-07T22:36:18.376Z,79.83
2018-12-07T22:39:05.275Z,79.96
2018-12-07T22:41:52.105Z,80.01
2018-12-07T22:44:40.403Z,79.95
2018-12-07T22:50:32.639Z,79.82
2018-12-07T22:53:21.765Z,79.79
2018-12-07T22:56:09.257Z,79.89
2018-12-07T22:58:57.518Z,78.00
2018-12-07T23:01:44.643Z,79.29
2018-12-07T23:04:35.079Z,79.97
2018-12-07T23:07:24.108Z,80.49
2018-12-07T23:10:11.236Z,80.55
2018-12-07T23:12:58.835Z,79.83
2018-12-07T23:15:48.841Z,78.58
2018-12-07T23:18:36.641Z,75.82
2018-12-07T23:21:24.151Z,74.11
2018-12-07T23:24:12.986Z,75.04
2018-12-07T23:26:59.870Z,75.04
2018-12-07T23:29:47.241Z,74.76
2018-12-07T23:32:36.244Z,74.52
2018-12-07T23:35:22.095Z,74.13
2018-12-07T23:38:09.653Z,74.26
2018-12-07T23:40:59.151Z,73.82
2018-12-07T23:43:47.164Z,73.88
2018-12-07T23:46:34.990Z,73.44
2018-12-07T23:49:22.187Z,73.18
2018-12-07T23:52:10.046Z,72.52
2018-12-07T23:54:57.671Z,72.66
2018-12-07T23:57:45.981Z,72.36
